Terminal Aerodrome Forecast
Issued by NWS Atlanta, GA

Home | Current Version | Previous Version | Text Only | Print | Product List | Glossary On
Versions: 1 2 3 4 5 6 7 8 9 10 11 12 13 14 15 16 17 18 19 20
000
FTUS42 KFFC 150300 AAB
TAFMCN
TAF AMD
KMCN 150309Z 1503/1524 07007KT P6SM OVC008
     FM150400 VRB03KT 3SM BR OVC005
     FM150800 VRB03KT 2SM BR OVC003
     FM151500 11005KT P6SM BKN015
     FM151900 25007KT P6SM BKN030 PROB30 1520/1524 4SM -TSRA
      BKN025CB=

USA.gov is the U.S. government's official web portal to all federal, state and local government web resources and services.